sensor_id;sensor_type;location;lat;lon;timestamp;pressure;altitude;pressure_sealevel;temperature;humidity
3428;BME280;1727;42.624;23.406;2022-07-29T00:01:50;95039.38;;;23.07;80.62
3428;BME280;1727;42.624;23.406;2022-07-29T00:04:17;95038.13;;;22.90;79.77
3428;BME280;1727;42.624;23.406;2022-07-29T00:06:44;95036.00;;;22.79;79.89
3428;BME280;1727;42.624;23.406;2022-07-29T00:09:11;95033.31;;;22.72;81.05
3428;BME280;1727;42.624;23.406;2022-07-29T00:11:39;95026.09;;;22.73;82.70
3428;BME280;1727;42.624;23.406;2022-07-29T00:14:06;95028.91;;;22.51;81.91
3428;BME280;1727;42.624;23.406;2022-07-29T00:16:33;95037.31;;;22.42;82.43
3428;BME280;1727;42.624;23.406;2022-07-29T00:21:26;95031.50;;;22.32;83.64
3428;BME280;1727;42.624;23.406;2022-07-29T00:23:53;95039.53;;;22.32;86.05
3428;BME280;1727;42.624;23.406;2022-07-29T00:26:20;95030.69;;;22.31;84.45
3428;BME280;1727;42.624;23.406;2022-07-29T00:28:48;95045.13;;;22.43;84.12
3428;BME280;1727;42.624;23.406;2022-07-29T00:31:15;95038.34;;;22.47;82.35
3428;BME280;1727;42.624;23.406;2022-07-29T00:33:41;95039.03;;;22.56;82.47
3428;BME280;1727;42.624;23.406;2022-07-29T00:36:08;95035.53;;;22.62;82.36
3428;BME280;1727;42.624;23.406;2022-07-29T00:38:34;95034.50;;;22.63;81.05
3428;BME280;1727;42.624;23.406;2022-07-29T00:41:01;95029.91;;;22.44;81.11
3428;BME280;1727;42.624;23.406;2022-07-29T00:43:27;95028.97;;;22.23;82.25
3428;BME280;1727;42.624;23.406;2022-07-29T00:45:56;95032.94;;;22.28;84.24
3428;BME280;1727;42.624;23.406;2022-07-29T00:48:22;95036.47;;;22.41;84.69
3428;BME280;1727;42.624;23.406;2022-07-29T00:50:49;95041.03;;;22.54;83.57
3428;BME280;1727;42.624;23.406;2022-07-29T00:53:16;95038.38;;;22.54;82.42
3428;BME280;1727;42.624;23.406;2022-07-29T00:55:43;95040.03;;;22.55;82.80
3428;BME280;1727;42.624;23.406;2022-07-29T00:58:11;95038.84;;;22.64;83.36
3428;BME280;1727;42.624;23.406;2022-07-29T01:00:39;95040.16;;;22.81;83.94
3428;BME280;1727;42.624;23.406;2022-07-29T01:03:08;95040.16;;;22.81;80.50
3428;BME280;1727;42.624;23.406;2022-07-29T01:05:35;95048.53;;;22.72;80.60
3428;BME280;1727;42.624;23.406;2022-07-29T01:08:02;95036.56;;;22.61;80.73
3428;BME280;1727;42.624;23.406;2022-07-29T01:10:30;95026.56;;;22.29;81.62
3428;BME280;1727;42.624;23.406;2022-07-29T01:12:58;95031.03;;;22.21;83.50
3428;BME280;1727;42.624;23.406;2022-07-29T01:15:26;95022.19;;;22.21;84.47
3428;BME280;1727;42.624;23.406;2022-07-29T01:18:00;95020.81;;;22.32;84.52
3428;BME280;1727;42.624;23.406;2022-07-29T01:20:39;95026.41;;;22.43;82.59
3428;BME280;1727;42.624;23.406;2022-07-29T01:26:33;95025.06;;;22.19;82.51
3428;BME280;1727;42.624;23.406;2022-07-29T01:29:05;95028.53;;;22.13;82.46
3428;BME280;1727;42.624;23.406;2022-07-29T01:31:42;95025.63;;;22.08;83.47
3428;BME280;1727;42.624;23.406;2022-07-29T01:34:13;95031.56;;;22.04;83.58
3428;BME280;1727;42.624;23.406;2022-07-29T01:36:45;95024.13;;;21.99;84.13
3428;BME280;1727;42.624;23.406;2022-07-29T01:39:26;95023.84;;;21.94;84.59
3428;BME280;1727;42.624;23.406;2022-07-29T01:42:02;95024.69;;;21.94;85.11
3428;BME280;1727;42.624;23.406;2022-07-29T01:44:36;95013.44;;;21.99;84.84
3428;BME280;1727;42.624;23.406;2022-07-29T01:47:10;95011.66;;;22.06;84.28
3428;BME280;1727;42.624;23.406;2022-07-29T01:49:42;95012.31;;;22.21;86.98
3428;BME280;1727;42.624;23.406;2022-07-29T01:52:15;95006.97;;;22.21;84.31
3428;BME280;1727;42.624;23.406;2022-07-29T01:54:49;95012.41;;;22.00;83.48
3428;BME280;1727;42.624;23.406;2022-07-29T01:57:20;94993.06;;;21.63;84.20
3428;BME280;1727;42.624;23.406;2022-07-29T01:59:49;95014.03;;;21.67;86.35
3428;BME280;1727;42.624;23.406;2022-07-29T02:02:18;95006.00;;;21.67;86.01
3428;BME280;1727;42.624;23.406;2022-07-29T02:04:47;95008.88;;;21.65;85.61
3428;BME280;1727;42.624;23.406;2022-07-29T02:07:19;94997.72;;;21.27;87.08
3428;BME280;1727;42.624;23.406;2022-07-29T02:09:47;95005.09;;;21.25;87.48
3428;BME280;1727;42.624;23.406;2022-07-29T02:12:16;94996.56;;;21.15;89.02
3428;BME280;1727;42.624;23.406;2022-07-29T02:14:47;94988.19;;;20.96;89.44
3428;BME280;1727;42.624;23.406;2022-07-29T02:17:21;94993.13;;;20.99;93.12
3428;BME280;1727;42.624;23.406;2022-07-29T02:19:49;94990.09;;;21.24;93.46
3428;BME280;1727;42.624;23.406;2022-07-29T02:22:18;94986.19;;;21.48;90.48
3428;BME280;1727;42.624;23.406;2022-07-29T02:24:47;94985.53;;;21.74;89.03
3428;BME280;1727;42.624;23.406;2022-07-29T02:27:16;94994.59;;;21.79;86.27
3428;BME280;1727;42.624;23.406;2022-07-29T02:29:46;94991.78;;;21.94;88.79
3428;BME280;1727;42.624;23.406;2022-07-29T02:32:13;94991.72;;;22.09;85.56
3428;BME280;1727;42.624;23.406;2022-07-29T02:34:43;94988.66;;;22.18;84.45
3428;BME280;1727;42.624;23.406;2022-07-29T02:37:11;94996.47;;;22.20;83.64
3428;BME280;1727;42.624;23.406;2022-07-29T02:39:41;94998.03;;;22.01;83.50
3428;BME280;1727;42.624;23.406;2022-07-29T02:42:12;94992.06;;;21.99;85.55
3428;BME280;1727;42.624;23.406;2022-07-29T02:44:39;94989.72;;;21.89;84.21
3428;BME280;1727;42.624;23.406;2022-07-29T02:47:11;94989.53;;;21.91;85.22
3428;BME280;1727;42.624;23.406;2022-07-29T02:49:46;94978.28;;;22.02;86.50
3428;BME280;1727;42.624;23.406;2022-07-29T02:52:21;94990.09;;;22.14;83.91
3428;BME280;1727;42.624;23.406;2022-07-29T02:54:52;94984.94;;;22.13;83.59
3428;BME280;1727;42.624;23.406;2022-07-29T02:57:22;94982.72;;;21.88;84.66
3428;BME280;1727;42.624;23.406;2022-07-29T02:59:53;94984.81;;;21.93;86.03
3428;BME280;1727;42.624;23.406;2022-07-29T03:02:25;94992.78;;;21.86;84.89
3428;BME280;1727;42.624;23.406;2022-07-29T03:04:55;94994.63;;;21.86;84.76
3428;BME280;1727;42.624;23.406;2022-07-29T03:07:24;94983.16;;;21.92;85.66
3428;BME280;1727;42.624;23.406;2022-07-29T03:09:52;94988.09;;;21.95;85.45
3428;BME280;1727;42.624;23.406;2022-07-29T03:12:19;94982.53;;;21.90;85.04
3428;BME280;1727;42.624;23.406;2022-07-29T03:14:47;94988.00;;;21.75;85.35
3428;BME280;1727;42.624;23.406;2022-07-29T03:17:15;94979.91;;;21.62;86.30
3428;BME280;1727;42.624;23.406;2022-07-29T03:19:42;94979.69;;;21.63;87.03
3428;BME280;1727;42.624;23.406;2022-07-29T03:22:11;94982.78;;;21.67;87.25
3428;BME280;1727;42.624;23.406;2022-07-29T03:24:38;94987.56;;;21.72;86.37
3428;BME280;1727;42.624;23.406;2022-07-29T03:27:05;94988.00;;;21.75;86.80
3428;BME280;1727;42.624;23.406;2022-07-29T03:29:32;94991.72;;;21.81;86.52
3428;BME280;1727;42.624;23.406;2022-07-29T03:32:00;94985.59;;;21.87;86.41
3428;BME280;1727;42.624;23.406;2022-07-29T03:34:27;94990.41;;;21.98;86.51
3428;BME280;1727;42.624;23.406;2022-07-29T03:36:54;94991.50;;;22.10;85.12
3428;BME280;1727;42.624;23.406;2022-07-29T03:39:25;94993.31;;;22.03;84.61
3428;BME280;1727;42.624;23.406;2022-07-29T03:41:55;94997.06;;;21.81;85.18
3428;BME280;1727;42.624;23.406;2022-07-29T03:44:26;94983.00;;;21.65;85.79
3428;BME280;1727;42.624;23.406;2022-07-29T03:46:55;94980.06;;;21.54;86.70
3428;BME280;1727;42.624;23.406;2022-07-29T03:49:25;94992.53;;;21.47;87.35
3428;BME280;1727;42.624;23.406;2022-07-29T03:51:52;94996.56;;;21.36;87.95
3428;BME280;1727;42.624;23.406;2022-07-29T03:54:19;94995.88;;;21.27;88.52
3428;BME280;1727;42.624;23.406;2022-07-29T03:56:48;94994.84;;;21.28;89.12
3428;BME280;1727;42.624;23.406;2022-07-29T03:59:18;94995.88;;;21.27;89.26
3428;BME280;1727;42.624;23.406;2022-07-29T04:01:47;94998.72;;;21.47;91.21
3428;BME280;1727;42.624;23.406;2022-07-29T04:04:15;95000.84;;;21.93;87.86
3428;BME280;1727;42.624;23.406;2022-07-29T04:06:43;95012.56;;;22.27;86.24
3428;BME280;1727;42.624;23.406;2022-07-29T04:09:10;95003.22;;;22.57;84.16
3428;BME280;1727;42.624;23.406;2022-07-29T04:11:39;95007.56;;;22.71;82.98
3428;BME280;1727;42.624;23.406;2022-07-29T04:14:07;95009.84;;;22.74;82.93
3428;BME280;1727;42.624;23.406;2022-07-29T04:16:34;95015.38;;;22.66;82.71
3428;BME280;1727;42.624;23.406;2022-07-29T04:19:01;95007.94;;;22.55;84.05
3428;BME280;1727;42.624;23.406;2022-07-29T04:21:27;95007.09;;;22.48;84.26
3428;BME280;1727;42.624;23.406;2022-07-29T04:23:54;95005.69;;;22.59;88.35
3428;BME280;1727;42.624;23.406;2022-07-29T04:26:21;95003.31;;;22.83;83.47
3428;BME280;1727;42.624;23.406;2022-07-29T04:28:48;95011.16;;;23.05;81.41
3428;BME280;1727;42.624;23.406;2022-07-29T04:31:16;95001.72;;;23.22;80.11
3428;BME280;1727;42.624;23.406;2022-07-29T04:33:43;95010.59;;;23.69;79.93
3428;BME280;1727;42.624;23.406;2022-07-29T04:36:09;95020.22;;;24.09;75.26
3428;BME280;1727;42.624;23.406;2022-07-29T04:38:38;95012.25;;;24.54;74.03
3428;BME280;1727;42.624;23.406;2022-07-29T04:41:05;95010.78;;;25.03;79.54
3428;BME280;1727;42.624;23.406;2022-07-29T04:43:33;95025.00;;;25.67;72.55
3428;BME280;1727;42.624;23.406;2022-07-29T04:46:00;95026.06;;;26.09;68.68
3428;BME280;1727;42.624;23.406;2022-07-29T04:48:29;95028.56;;;26.47;68.47
3428;BME280;1727;42.624;23.406;2022-07-29T04:50:56;95037.97;;;26.74;65.76
3428;BME280;1727;42.624;23.406;2022-07-29T04:53:22;95030.53;;;27.06;67.57
3428;BME280;1727;42.624;23.406;2022-07-29T04:55:49;95029.56;;;27.31;64.91
3428;BME280;1727;42.624;23.406;2022-07-29T04:58:17;95028.91;;;27.59;65.09
3428;BME280;1727;42.624;23.406;2022-07-29T05:00:43;95036.25;;;27.93;60.00
3428;BME280;1727;42.624;23.406;2022-07-29T05:03:10;95033.22;;;28.25;59.82
3428;BME280;1727;42.624;23.406;2022-07-29T05:05:38;95039.03;;;28.57;59.52
3428;BME280;1727;42.624;23.406;2022-07-29T05:08:06;95033.56;;;28.80;58.51
3428;BME280;1727;42.624;23.406;2022-07-29T05:10:33;95030.88;;;28.80;56.99
3428;BME280;1727;42.624;23.406;2022-07-29T05:13:03;95029.94;;;28.86;58.47
3428;BME280;1727;42.624;23.406;2022-07-29T05:15:30;95028.19;;;28.92;59.04
3428;BME280;1727;42.624;23.406;2022-07-29T05:17:57;95042.72;;;29.19;57.65
3428;BME280;1727;42.624;23.406;2022-07-29T05:20:24;95037.81;;;29.45;57.20
3428;BME280;1727;42.624;23.406;2022-07-29T05:22:55;95050.47;;;29.73;55.52
3428;BME280;1727;42.624;23.406;2022-07-29T05:25:22;95039.31;;;29.86;54.92
3428;BME280;1727;42.624;23.406;2022-07-29T05:27:49;95037.84;;;29.95;54.38
3428;BME280;1727;42.624;23.406;2022-07-29T05:30:16;95038.16;;;29.99;53.20
3428;BME280;1727;42.624;23.406;2022-07-29T05:32:43;95038.25;;;30.04;53.69
3428;BME280;1727;42.624;23.406;2022-07-29T05:35:10;95045.50;;;30.15;55.11
3428;BME280;1727;42.624;23.406;2022-07-29T05:37:37;95047.09;;;30.33;54.00
3428;BME280;1727;42.624;23.406;2022-07-29T05:40:06;95036.72;;;30.46;53.40
3428;BME280;1727;42.624;23.406;2022-07-29T05:42:33;95038.09;;;30.66;53.20
3428;BME280;1727;42.624;23.406;2022-07-29T05:45:02;95044.63;;;30.92;53.83
3428;BME280;1727;42.624;23.406;2022-07-29T05:47:29;95029.13;;;31.09;52.21
3428;BME280;1727;42.624;23.406;2022-07-29T05:49:56;95040.19;;;31.24;50.04
3428;BME280;1727;42.624;23.406;2022-07-29T05:52:23;95033.94;;;31.02;49.90
3428;BME280;1727;42.624;23.406;2022-07-29T05:54:49;95043.75;;;30.64;51.36
3428;BME280;1727;42.624;23.406;2022-07-29T05:57:19;95037.19;;;30.60;51.33
3428;BME280;1727;42.624;23.406;2022-07-29T05:59:46;95036.69;;;30.63;52.27
3428;BME280;1727;42.624;23.406;2022-07-29T06:02:13;95035.41;;;30.49;51.06
3428;BME280;1727;42.624;23.406;2022-07-29T06:04:40;95036.31;;;30.16;52.54
3428;BME280;1727;42.624;23.406;2022-07-29T06:07:07;95038.47;;;30.02;52.97
3428;BME280;1727;42.624;23.406;2022-07-29T06:09:34;95041.91;;;30.09;53.22
3428;BME280;1727;42.624;23.406;2022-07-29T06:12:01;95043.81;;;30.31;53.63
3428;BME280;1727;42.624;23.406;2022-07-29T06:14:30;95041.91;;;30.48;52.32
3428;BME280;1727;42.624;23.406;2022-07-29T06:16:57;95053.28;;;30.67;52.79
3428;BME280;1727;42.624;23.406;2022-07-29T06:19:24;95038.63;;;30.46;52.77
3428;BME280;1727;42.624;23.406;2022-07-29T06:21:51;95032.38;;;30.45;53.32
3428;BME280;1727;42.624;23.406;2022-07-29T06:24:18;95038.19;;;30.54;52.16
3428;BME280;1727;42.624;23.406;2022-07-29T06:26:45;95044.66;;;30.14;52.64
3428;BME280;1727;42.624;23.406;2022-07-29T06:29:12;95044.66;;;29.98;52.25
3428;BME280;1727;42.624;23.406;2022-07-29T06:31:40;95046.50;;;29.47;53.69
3428;BME280;1727;42.624;23.406;2022-07-29T06:34:07;95039.31;;;29.24;55.54
3428;BME280;1727;42.624;23.406;2022-07-29T06:36:34;95032.38;;;28.99;56.02
3428;BME280;1727;42.624;23.406;2022-07-29T06:39:04;95039.34;;;29.41;58.13
3428;BME280;1727;42.624;23.406;2022-07-29T06:41:32;95034.88;;;29.63;56.00
3428;BME280;1727;42.624;23.406;2022-07-29T06:43:59;95029.06;;;29.88;54.03
3428;BME280;1727;42.624;23.406;2022-07-29T06:46:25;95028.88;;;29.44;54.47
3428;BME280;1727;42.624;23.406;2022-07-29T06:48:54;95030.97;;;29.42;55.07
3428;BME280;1727;42.624;23.406;2022-07-29T06:51:21;95029.41;;;29.58;57.34
3428;BME280;1727;42.624;23.406;2022-07-29T06:53:49;95029.22;;;29.48;55.51
3428;BME280;1727;42.624;23.406;2022-07-29T06:56:16;95022.03;;;28.96;55.05
3428;BME280;1727;42.624;23.406;2022-07-29T06:58:43;95021.47;;;29.23;55.77
3428;BME280;1727;42.624;23.406;2022-07-29T07:01:09;95024.19;;;29.11;57.23
3428;BME280;1727;42.624;23.406;2022-07-29T07:03:36;95015.28;;;28.71;57.34
3428;BME280;1727;42.624;23.406;2022-07-29T07:06:05;95017.03;;;28.77;57.35
3428;BME280;1727;42.624;23.406;2022-07-29T07:08:31;95021.09;;;28.91;57.49
3428;BME280;1727;42.624;23.406;2022-07-29T07:10:58;95018.50;;;29.24;57.34
3428;BME280;1727;42.624;23.406;2022-07-29T07:13:25;95007.38;;;28.92;56.17
3428;BME280;1727;42.624;23.406;2022-07-29T07:15:53;95022.53;;;29.22;56.53
3428;BME280;1727;42.624;23.406;2022-07-29T07:18:20;95013.53;;;29.05;55.94
3428;BME280;1727;42.624;23.406;2022-07-29T07:20:47;95018.84;;;29.28;57.76
3428;BME280;1727;42.624;23.406;2022-07-29T07:23:15;95022.91;;;29.14;56.81
3428;BME280;1727;42.624;23.406;2022-07-29T07:25:42;95026.19;;;29.16;55.49
3428;BME280;1727;42.624;23.406;2022-07-29T07:28:10;95022.84;;;29.25;57.46
3428;BME280;1727;42.624;23.406;2022-07-29T07:30:36;95016.88;;;29.23;54.30
3428;BME280;1727;42.624;23.406;2022-07-29T07:33:03;95012.81;;;28.69;55.35
3428;BME280;1727;42.624;23.406;2022-07-29T07:35:31;95012.66;;;28.87;55.67
3428;BME280;1727;42.624;23.406;2022-07-29T07:37:58;95009.25;;;28.80;55.65
3428;BME280;1727;42.624;23.406;2022-07-29T07:40:26;95013.69;;;28.23;56.44
3428;BME280;1727;42.624;23.406;2022-07-29T07:42:53;95009.59;;;28.20;55.50
3428;BME280;1727;42.624;23.406;2022-07-29T07:45:20;95002.56;;;28.31;55.52
3428;BME280;1727;42.624;23.406;2022-07-29T07:47:47;95000.13;;;28.06;57.13
3428;BME280;1727;42.624;23.406;2022-07-29T07:50:14;95007.75;;;28.09;56.41
3428;BME280;1727;42.624;23.406;2022-07-29T07:52:47;95010.56;;;28.26;56.85
3428;BME280;1727;42.624;23.406;2022-07-29T07:55:15;95003.97;;;28.33;55.02
3428;BME280;1727;42.624;23.406;2022-07-29T07:57:44;94996.22;;;28.77;56.69
3428;BME280;1727;42.624;23.406;2022-07-29T08:00:11;95008.75;;;28.55;55.79
3428;BME280;1727;42.624;23.406;2022-07-29T08:02:39;95000.06;;;28.53;53.30
3428;BME280;1727;42.624;23.406;2022-07-29T08:05:08;95004.03;;;28.62;53.71
3428;BME280;1727;42.624;23.406;2022-07-29T08:07:36;94997.50;;;28.86;53.40
3428;BME280;1727;42.624;23.406;2022-07-29T08:10:03;95003.22;;;29.02;52.54
3428;BME280;1727;42.624;23.406;2022-07-29T08:12:30;95008.44;;;29.37;52.47
3428;BME280;1727;42.624;23.406;2022-07-29T08:14:58;95000.13;;;29.72;51.55
3428;BME280;1727;42.624;23.406;2022-07-29T08:17:25;95001.78;;;29.89;49.82
3428;BME280;1727;42.624;23.406;2022-07-29T08:19:53;95003.50;;;30.12;50.66
3428;BME280;1727;42.624;23.406;2022-07-29T08:22:20;95001.22;;;30.43;51.35
3428;BME280;1727;42.624;23.406;2022-07-29T08:24:47;95000.25;;;30.54;48.12
3428;BME280;1727;42.624;23.406;2022-07-29T08:27:19;94994.75;;;30.66;47.67
3428;BME280;1727;42.624;23.406;2022-07-29T08:29:47;94988.31;;;30.72;47.98
3428;BME280;1727;42.624;23.406;2022-07-29T08:32:15;94995.69;;;30.98;47.52
3428;BME280;1727;42.624;23.406;2022-07-29T08:34:42;94991.47;;;31.12;48.21
3428;BME280;1727;42.624;23.406;2022-07-29T08:37:11;94990.91;;;31.32;44.47
3428;BME280;1727;42.624;23.406;2022-07-29T08:39:38;94982.50;;;31.34;45.02
3428;BME280;1727;42.624;23.406;2022-07-29T08:42:05;94994.25;;;31.18;42.94
3428;BME280;1727;42.624;23.406;2022-07-29T08:44:33;94988.75;;;31.12;43.60
3428;BME280;1727;42.624;23.406;2022-07-29T08:47:01;94986.16;;;30.96;43.59
3428;BME280;1727;42.624;23.406;2022-07-29T08:49:29;94985.75;;;31.09;46.28
3428;BME280;1727;42.624;23.406;2022-07-29T08:51:57;94992.78;;;31.32;50.47
3428;BME280;1727;42.624;23.406;2022-07-29T08:54:25;94979.41;;;31.52;44.05
3428;BME280;1727;42.624;23.406;2022-07-29T08:56:52;94989.13;;;31.80;45.80
3428;BME280;1727;42.624;23.406;2022-07-29T08:59:20;94987.41;;;32.01;46.58
3428;BME280;1727;42.624;23.406;2022-07-29T09:01:51;94977.75;;;32.20;44.22
3428;BME280;1727;42.624;23.406;2022-07-29T09:04:19;94981.34;;;32.31;43.47
3428;BME280;1727;42.624;23.406;2022-07-29T09:06:51;94971.28;;;32.26;41.02
3428;BME280;1727;42.624;23.406;2022-07-29T09:09:18;94970.22;;;32.27;44.45
3428;BME280;1727;42.624;23.406;2022-07-29T09:11:45;94971.84;;;32.28;42.69
3428;BME280;1727;42.624;23.406;2022-07-29T09:14:12;94974.81;;;32.27;43.06
3428;BME280;1727;42.624;23.406;2022-07-29T09:16:51;94972.84;;;32.17;42.63
3428;BME280;1727;42.624;23.406;2022-07-29T09:19:23;94974.25;;;32.25;43.17
3428;BME280;1727;42.624;23.406;2022-07-29T09:21:51;94972.97;;;32.38;42.97
3428;BME280;1727;42.624;23.406;2022-07-29T09:24:26;94976.91;;;32.15;43.80
3428;BME280;1727;42.624;23.406;2022-07-29T09:26:53;94978.72;;;32.04;45.60
3428;BME280;1727;42.624;23.406;2022-07-29T09:29:21;94969.78;;;32.09;43.75
3428;BME280;1727;42.624;23.406;2022-07-29T09:31:49;94966.63;;;32.22;44.98
3428;BME280;1727;42.624;23.406;2022-07-29T09:34:21;94953.66;;;32.34;44.38
3428;BME280;1727;42.624;23.406;2022-07-29T09:36:51;94965.69;;;32.48;44.85
3428;BME280;1727;42.624;23.406;2022-07-29T09:39:27;94959.00;;;32.19;44.36
3428;BME280;1727;42.624;23.406;2022-07-29T09:41:56;94963.44;;;32.35;42.84
3428;BME280;1727;42.624;23.406;2022-07-29T09:44:24;94964.63;;;32.07;43.79
3428;BME280;1727;42.624;23.406;2022-07-29T09:46:58;94965.97;;;32.04;43.85
3428;BME280;1727;42.624;23.406;2022-07-29T09:49:31;94959.88;;;31.82;43.89
3428;BME280;1727;42.624;23.406;2022-07-29T09:52:08;94950.59;;;31.46;45.42
3428;BME280;1727;42.624;23.406;2022-07-29T09:54:35;94949.94;;;31.34;46.27
3428;BME280;1727;42.624;23.406;2022-07-29T09:57:07;94942.75;;;31.50;46.04
3428;BME280;1727;42.624;23.406;2022-07-29T09:59:37;94941.22;;;31.59;46.42
3428;BME280;1727;42.624;23.406;2022-07-29T10:02:11;94950.69;;;31.24;44.12
3428;BME280;1727;42.624;23.406;2022-07-29T10:04:40;94928.19;;;31.24;44.85
3428;BME280;1727;42.624;23.406;2022-07-29T10:07:08;94941.47;;;31.25;44.54
3428;BME280;1727;42.624;23.406;2022-07-29T10:09:35;94930.66;;;31.30;44.98
3428;BME280;1727;42.624;23.406;2022-07-29T10:12:07;94939.41;;;31.10;46.16
3428;BME280;1727;42.624;23.406;2022-07-29T10:14:36;94921.97;;;31.28;46.50
3428;BME280;1727;42.624;23.406;2022-07-29T10:17:05;94928.25;;;31.34;44.73
3428;BME280;1727;42.624;23.406;2022-07-29T10:19:33;94922.09;;;31.43;45.41
3428;BME280;1727;42.624;23.406;2022-07-29T10:22:02;94926.78;;;31.53;44.70
3428;BME280;1727;42.624;23.406;2022-07-29T10:24:31;94916.03;;;31.68;46.88
3428;BME280;1727;42.624;23.406;2022-07-29T10:27:01;94913.84;;;31.65;43.46
3428;BME280;1727;42.624;23.406;2022-07-29T10:29:29;94910.88;;;31.67;45.39
3428;BME280;1727;42.624;23.406;2022-07-29T10:32:11;94901.72;;;31.73;44.68
3428;BME280;1727;42.624;23.406;2022-07-29T10:34:51;94897.09;;;31.73;44.61
3428;BME280;1727;42.624;23.406;2022-07-29T10:37:28;94907.72;;;31.43;44.03
3428;BME280;1727;42.624;23.406;2022-07-29T10:40:09;94905.66;;;31.55;44.82
3428;BME280;1727;42.624;23.406;2022-07-29T10:42:52;94906.53;;;31.66;46.40
3428;BME280;1727;42.624;23.406;2022-07-29T10:45:20;94894.00;;;31.60;44.01
3428;BME280;1727;42.624;23.406;2022-07-29T10:47:47;94891.25;;;31.55;42.31
3428;BME280;1727;42.624;23.406;2022-07-29T10:50:14;94891.78;;;31.52;42.39
3428;BME280;1727;42.624;23.406;2022-07-29T10:52:56;94892.00;;;31.45;43.34
3428;BME280;1727;42.624;23.406;2022-07-29T10:55:35;94886.78;;;31.06;42.85
3428;BME280;1727;42.624;23.406;2022-07-29T10:58:12;94887.63;;;31.12;41.00
3428;BME280;1727;42.624;23.406;2022-07-29T11:00:41;94884.06;;;31.06;41.90
3428;BME280;1727;42.624;23.406;2022-07-29T11:03:08;94885.97;;;31.06;42.93
3428;BME280;1727;42.624;23.406;2022-07-29T11:05:56;94878.94;;;31.10;44.94
3428;BME280;1727;42.624;23.406;2022-07-29T11:08:24;94880.19;;;31.24;43.08
3428;BME280;1727;42.624;23.406;2022-07-29T11:13:49;94879.94;;;31.26;42.21
3428;BME280;1727;42.624;23.406;2022-07-29T11:16:18;94874.19;;;31.22;45.10
3428;BME280;1727;42.624;23.406;2022-07-29T11:19:22;94876.06;;;31.22;42.85
3428;BME280;1727;42.624;23.406;2022-07-29T11:21:49;94866.66;;;31.29;43.78
3428;BME280;1727;42.624;23.406;2022-07-29T11:24:19;94864.31;;;31.43;43.93
3428;BME280;1727;42.624;23.406;2022-07-29T11:29:51;94862.19;;;31.50;39.91
3428;BME280;1727;42.624;23.406;2022-07-29T11:32:18;94849.41;;;31.46;41.73
3428;BME280;1727;42.624;23.406;2022-07-29T11:34:47;94849.69;;;31.49;40.93
3428;BME280;1727;42.624;23.406;2022-07-29T11:37:18;94847.53;;;31.51;40.32
3428;BME280;1727;42.624;23.406;2022-07-29T11:40:07;94853.06;;;31.66;39.97
3428;BME280;1727;42.624;23.406;2022-07-29T11:42:41;94856.13;;;31.75;39.91
3428;BME280;1727;42.624;23.406;2022-07-29T11:45:13;94852.44;;;31.91;41.97
3428;BME280;1727;42.624;23.406;2022-07-29T11:47:42;94850.53;;;31.97;39.20
3428;BME280;1727;42.624;23.406;2022-07-29T11:50:14;94848.66;;;31.97;40.41
3428;BME280;1727;42.624;23.406;2022-07-29T11:52:42;94852.44;;;31.91;37.86
3428;BME280;1727;42.624;23.406;2022-07-29T11:55:12;94845.28;;;31.80;34.97
3428;BME280;1727;42.624;23.406;2022-07-29T11:57:50;94853.75;;;31.84;38.67
3428;BME280;1727;42.624;23.406;2022-07-29T12:00:28;94848.13;;;32.00;43.06
3428;BME280;1727;42.624;23.406;2022-07-29T12:02:55;94834.59;;;32.11;37.78
3428;BME280;1727;42.624;23.406;2022-07-29T12:05:31;94848.06;;;31.85;36.69
3428;BME280;1727;42.624;23.406;2022-07-29T12:08:04;94837.69;;;31.77;37.91
3428;BME280;1727;42.624;23.406;2022-07-29T12:10:31;94845.28;;;31.75;39.63
3428;BME280;1727;42.624;23.406;2022-07-29T12:12:58;94837.78;;;31.92;40.28
3428;BME280;1727;42.624;23.406;2022-07-29T12:15:26;94845.94;;;32.02;40.26
3428;BME280;1727;42.624;23.406;2022-07-29T12:17:53;94838.63;;;32.03;42.13
3428;BME280;1727;42.624;23.406;2022-07-29T12:20:25;94839.50;;;32.14;36.87
3428;BME280;1727;42.624;23.406;2022-07-29T12:22:52;94832.97;;;32.10;37.81
3428;BME280;1727;42.624;23.406;2022-07-29T12:25:21;94840.59;;;32.18;41.82
3428;BME280;1727;42.624;23.406;2022-07-29T12:27:57;94831.69;;;32.27;40.26
3428;BME280;1727;42.624;23.406;2022-07-29T12:30:35;94830.88;;;32.32;37.38
3428;BME280;1727;42.624;23.406;2022-07-29T12:33:10;94827.50;;;32.04;38.02
3428;BME280;1727;42.624;23.406;2022-07-29T12:35:38;94832.88;;;31.89;37.92
3428;BME280;1727;42.624;23.406;2022-07-29T12:38:05;94822.25;;;31.83;38.05
3428;BME280;1727;42.624;23.406;2022-07-29T12:40:32;94829.06;;;31.90;38.79
3428;BME280;1727;42.624;23.406;2022-07-29T12:43:07;94827.16;;;31.86;38.33
3428;BME280;1727;42.624;23.406;2022-07-29T12:45:37;94820.38;;;31.88;38.74
3428;BME280;1727;42.624;23.406;2022-07-29T12:48:05;94820.69;;;31.97;38.95
3428;BME280;1727;42.624;23.406;2022-07-29T12:50:34;94818.25;;;32.05;39.41
3428;BME280;1727;42.624;23.406;2022-07-29T12:53:11;94820.44;;;32.09;39.76
3428;BME280;1727;42.624;23.406;2022-07-29T12:55:40;94816.91;;;32.08;39.20
3428;BME280;1727;42.624;23.406;2022-07-29T12:58:07;94812.03;;;32.05;38.73
3428;BME280;1727;42.624;23.406;2022-07-29T13:00:34;94807.66;;;31.99;39.71
3428;BME280;1727;42.624;23.406;2022-07-29T13:03:02;94810.06;;;31.85;39.45
3428;BME280;1727;42.624;23.406;2022-07-29T13:05:40;94798.16;;;31.96;38.72
3428;BME280;1727;42.624;23.406;2022-07-29T13:08:12;94801.69;;;31.97;39.55
3428;BME280;1727;42.624;23.406;2022-07-29T13:10:39;94806.84;;;32.03;39.35
3428;BME280;1727;42.624;23.406;2022-07-29T13:13:08;94800.63;;;32.03;40.33
3428;BME280;1727;42.624;23.406;2022-07-29T13:15:36;94801.97;;;32.00;37.61
3428;BME280;1727;42.624;23.406;2022-07-29T13:18:28;94799.59;;;32.14;38.57
3428;BME280;1727;42.624;23.406;2022-07-29T13:20:56;94795.47;;;32.07;37.74
3428;BME280;1727;42.624;23.406;2022-07-29T13:23:23;94789.00;;;32.18;40.03
3428;BME280;1727;42.624;23.406;2022-07-29T13:25:50;94787.28;;;31.96;39.20
3428;BME280;1727;42.624;23.406;2022-07-29T13:28:16;94785.13;;;31.98;37.62
3428;BME280;1727;42.624;23.406;2022-07-29T13:30:43;94787.25;;;31.81;38.50
3428;BME280;1727;42.624;23.406;2022-07-29T13:33:11;94782.94;;;31.90;38.50